This is the latest recevied weather packets stored in our database for station/object VK6DUG. If no packets are shown the sender has not sent any weather packets the latest 10 day(s).
| Time | Temp. | Humidity | Pressure | Rain* | Wind** | Luminosity | Snow |
|---|---|---|---|---|---|---|---|
| 1777512034 | 16.11° C | 97% | 1020.3 hPa | 0 mm | - | 152 W/m² | - |
| 1777511432 | 16.11° C | 97% | 1020.3 hPa | 0 mm | - | 129 W/m² | - |
| 1777510828 | 15.56° C | 97% | 1020.2 hPa | 0 mm | - | 123 W/m² | - |
| 1777510224 | 15.56° C | 97% | 1020.2 hPa | 0 mm | - | 115 W/m² | - |
| 1777509621 | 15.56° C | 98% | 1020.3 hPa | 0 mm | - | 107 W/m² | - |
| 1777509018 | 14.44° C | 98% | 1020 hPa | 0 mm | - | 100 W/m² | - |
| 1777508435 | 13.89° C | 98% | 1020 hPa | 0 mm | - | 93 W/m² | - |
| 1777507832 | 13.89° C | 98% | 1019.7 hPa | 0 mm | - | 84 W/m² | - |
| 1777507229 | 11.67° C | 98% | 1019.6 hPa | 0 mm | - | 53 W/m² | - |
| 1777506625 | 11.67° C | 97% | 1019.3 hPa | 0 mm | - | 32 W/m² | - |
| 1777506023 | 11.11° C | 97% | 1019.2 hPa | 0 mm | - | 27 W/m² | - |
| 1777505418 | 11.11° C | 97% | 1019.1 hPa | 0 mm | - | 23 W/m² | - |
| 1777504816 | 11.11° C | 97% | 1019 hPa | 0 mm | - | 18 W/m² | - |
| 1777504232 | 11.11° C | 97% | 1018.9 hPa | 0 mm | - | 13 W/m² | - |
| 1777503629 | 11.67° C | 97% | 1018.9 hPa | 0 mm | - | 7 W/m² | - |
| 1777503025 | 11.67° C | 97% | 1018.9 hPa | 0 mm | - | 3 W/m² | - |
| 1777502420 | 11.67° C | 97% | 1018.7 hPa | 0 mm | - | 1 W/m² | - |
| 1777501817 | 11.67° C | 97% | 1018.7 hPa | 0 mm | - | 0 W/m² | - |
| 1777501232 | 11.67° C | 97% | 1018.7 hPa | 0 mm | - | 0 W/m² | - |
| 1777500628 | 11.67° C | 97% | 1018.6 hPa | 0 mm | - | 0 W/m² | - |
| 1777500024 | 12.22° C | 97% | 1018.4 hPa | 0 mm | - | 0 W/m² | - |
| 1777499420 | 12.22° C | 97% | 1018.4 hPa | 0 mm | - | 0 W/m² | - |
| 1777498817 | 12.22° C | 97% | 1018.3 hPa | 0 mm | - | 0 W/m² | - |
| 1777498233 | 12.22° C | 97% | 1018.2 hPa | 0 mm | - | 0 W/m² | - |
| 1777497627 | 12.78° C | 97% | 1018.2 hPa | 0 mm | - | 0 W/m² | - |
* Rain latest hour (hover to see other rain measurements)
** Current wind speed in m/s (hover to see current wind gust speed)